createdAt,value
2023-03-24T06:03:07.676Z,95318.00
2023-03-24T06:04:08.651Z,95318.00
2023-03-24T06:05:08.604Z,95312.00
2023-03-24T06:06:08.645Z,95311.00
2023-03-24T06:07:08.676Z,95309.00
2023-03-24T06:08:08.728Z,95307.00
2023-03-24T06:09:08.758Z,95309.00
2023-03-24T06:10:08.766Z,95309.00
2023-03-24T06:15:07.892Z,95318.00
2023-03-24T06:16:09.009Z,95314.00
2023-03-24T06:17:09.006Z,95322.00
2023-03-24T06:18:09.116Z,95320.00
2023-03-24T06:20:08.153Z,95316.00
2023-03-24T06:27:08.512Z,95316.00
2023-03-24T06:28:08.547Z,95316.00
2023-03-24T06:34:08.867Z,95303.00
2023-03-24T06:35:09.885Z,95305.00
2023-03-24T06:39:09.101Z,95305.00
2023-03-24T06:40:10.193Z,95307.00
2023-03-24T06:41:10.246Z,95307.00
2023-03-24T06:42:10.321Z,95301.00
2023-03-24T06:43:10.366Z,95303.00
2023-03-24T06:44:10.429Z,95299.00
2023-03-24T06:45:10.466Z,95299.00
2023-03-24T06:46:10.565Z,95299.00
2023-03-24T06:47:10.598Z,95301.00
2023-03-24T06:48:10.669Z,95301.00
2023-03-24T06:49:10.729Z,95301.00
2023-03-24T06:50:10.758Z,95303.00
2023-03-24T06:51:10.804Z,95305.00
2023-03-24T06:53:09.924Z,95305.00
2023-03-24T06:58:10.244Z,95299.00
2023-03-24T06:59:11.300Z,95299.00
2023-03-24T07:00:11.342Z,95297.00
2023-03-24T07:01:11.412Z,95299.00
2023-03-24T07:02:11.857Z,95293.00
2023-03-24T07:04:10.681Z,95299.00
2023-03-24T07:08:33.976Z,95301.00
2023-03-24T07:11:10.678Z,95312.00
2023-03-24T07:13:10.624Z,95305.00
2023-03-24T07:14:10.628Z,95303.00
2023-03-24T07:18:10.638Z,95291.00
2023-03-24T07:19:10.561Z,95291.00
2023-03-24T07:20:11.561Z,95291.00
2023-03-24T07:21:11.590Z,95287.00
2023-03-24T07:23:10.651Z,95285.00
2023-03-24T07:25:10.684Z,95279.00
2023-03-24T07:26:10.761Z,95279.00
2023-03-24T07:27:17.126Z,95279.00
2023-03-24T07:29:10.758Z,95281.00
2023-03-24T07:32:10.778Z,95283.00
2023-03-24T07:34:10.708Z,95287.00
2023-03-24T07:35:11.703Z,95285.00
2023-03-24T07:36:11.780Z,95283.00
2023-03-24T07:38:10.837Z,95283.00
2023-03-24T07:39:11.681Z,95281.00
2023-03-24T07:40:11.679Z,95275.00
2023-03-24T07:41:11.671Z,95277.00
2023-03-24T07:44:10.658Z,95277.00
2023-03-24T07:46:11.023Z,95277.00
2023-03-24T07:47:11.641Z,95277.00
2023-03-24T07:48:11.715Z,95271.00
2023-03-24T07:49:18.844Z,95269.00
2023-03-24T07:50:11.619Z,95267.00
2023-03-24T07:54:10.573Z,95281.00
2023-03-24T07:56:10.652Z,95279.00
2023-03-24T07:59:10.704Z,95269.00
2023-03-24T08:00:11.646Z,95271.00
2023-03-24T08:01:11.739Z,95271.00
2023-03-24T08:05:10.549Z,95269.00
2023-03-24T08:06:11.524Z,95271.00
2023-03-24T08:09:10.521Z,95269.00
2023-03-24T08:10:10.491Z,95273.00
2023-03-24T08:11:11.505Z,95269.00
2023-03-24T08:12:20.063Z,95271.00
2023-03-24T08:14:10.459Z,95267.00
2023-03-24T08:18:10.475Z,95269.00
2023-03-24T08:20:10.501Z,95265.00
2023-03-24T08:21:11.534Z,95265.00
2023-03-24T08:22:11.400Z,95262.00
2023-03-24T08:24:10.396Z,95258.00
2023-03-24T08:25:11.442Z,95262.00
2023-03-24T08:27:10.371Z,95256.00
2023-03-24T08:28:10.389Z,95254.00
2023-03-24T08:29:11.351Z,95252.00
2023-03-24T08:30:11.365Z,95252.00
2023-03-24T08:31:11.430Z,95252.00
2023-03-24T08:32:11.343Z,95252.00
2023-03-24T08:33:12.471Z,95250.00
2023-03-24T08:34:10.327Z,95254.00
2023-03-24T08:35:11.369Z,95254.00
2023-03-24T08:38:10.358Z,95254.00
2023-03-24T08:39:11.418Z,95258.00
2023-03-24T08:40:11.579Z,95254.00
2023-03-24T08:41:11.618Z,95252.00
2023-03-24T08:42:11.613Z,95250.00
2023-03-24T08:43:11.583Z,95256.00
2023-03-24T08:44:11.653Z,95254.00
2023-03-24T08:45:11.643Z,95258.00
2023-03-24T08:48:10.927Z,95256.00
2023-03-24T08:49:10.835Z,95258.00
2023-03-24T08:50:11.752Z,95260.00
2023-03-24T08:51:11.780Z,95258.00
2023-03-24T08:52:11.819Z,95258.00
2023-03-24T08:53:11.900Z,95254.00
2023-03-24T08:54:10.864Z,95252.00
2023-03-24T08:55:11.924Z,95250.00
2023-03-24T08:56:11.942Z,95252.00
2023-03-24T08:57:12.013Z,95248.00
2023-03-24T08:58:12.022Z,95250.00
2023-03-24T09:01:11.046Z,95246.00
2023-03-24T09:02:11.045Z,95248.00
2023-03-24T09:03:12.166Z,95244.00
2023-03-24T09:04:12.157Z,95242.00
2023-03-24T09:05:12.194Z,95246.00
2023-03-24T09:06:12.296Z,95244.00
2023-03-24T09:07:12.320Z,95244.00
2023-03-24T09:08:12.409Z,95246.00
2023-03-24T09:09:12.408Z,95242.00
2023-03-24T09:10:12.427Z,95242.00
2023-03-24T09:11:12.470Z,95238.00
2023-03-24T09:12:12.514Z,95240.00
2023-03-24T09:13:12.623Z,95242.00
2023-03-24T09:16:11.713Z,95254.00
2023-03-24T09:17:12.731Z,95260.00
2023-03-24T09:18:11.793Z,95262.00
2023-03-24T09:19:12.825Z,95265.00
2023-03-24T09:20:12.856Z,95273.00
2023-03-24T09:21:12.904Z,95277.00
2023-03-24T09:22:12.950Z,95275.00
2023-03-24T09:23:12.992Z,95277.00
2023-03-24T09:24:13.046Z,95277.00
2023-03-24T09:25:13.052Z,95273.00
2023-03-24T09:28:12.177Z,95260.00
2023-03-24T09:29:13.206Z,95256.00
2023-03-24T09:30:13.238Z,95252.00
2023-03-24T09:33:12.444Z,95236.00
2023-03-24T09:34:12.377Z,95232.00
2023-03-24T09:35:13.455Z,95226.00
2023-03-24T09:36:13.486Z,95228.00
2023-03-24T09:37:13.499Z,95224.00
2023-03-24T09:38:13.544Z,95230.00
2023-03-24T09:39:13.620Z,95232.00
2023-03-24T09:43:12.685Z,95240.00
2023-03-24T09:44:13.913Z,95242.00
2023-03-24T09:45:13.796Z,95250.00
2023-03-24T09:46:13.831Z,95250.00
2023-03-24T09:47:13.862Z,95248.00
2023-03-24T09:48:13.925Z,95252.00
2023-03-24T09:49:12.987Z,95248.00
2023-03-24T09:52:13.078Z,95254.00
2023-03-24T09:53:14.096Z,95252.00
2023-03-24T09:54:14.274Z,95254.00
2023-03-24T09:55:14.174Z,95256.00
2023-03-24T09:56:14.201Z,95258.00
2023-03-24T09:57:14.329Z,95260.00
2023-03-24T09:58:14.434Z,95262.00
2023-03-24T10:02:13.426Z,95271.00
2023-03-24T10:03:15.000Z,95271.00
2023-03-24T10:05:13.525Z,95277.00
2023-03-24T10:08:13.700Z,95279.00
2023-03-24T10:09:14.672Z,95279.00
2023-03-24T10:10:14.699Z,95281.00
2023-03-24T10:15:16.180Z,95279.00
2023-03-24T10:17:13.900Z,95283.00
2023-03-24T10:18:14.889Z,95287.00
2023-03-24T10:19:14.886Z,95289.00
2023-03-24T10:21:13.850Z,95287.00
2023-03-24T10:24:13.865Z,95295.00
2023-03-24T10:25:14.860Z,95295.00
2023-03-24T10:26:14.825Z,95295.00
2023-03-24T10:30:13.794Z,95301.00
2023-03-24T10:31:13.907Z,95299.00
2023-03-24T10:32:14.841Z,95299.00
2023-03-24T10:36:14.020Z,95299.00
2023-03-24T10:37:15.010Z,95301.00
2023-03-24T10:38:15.047Z,95305.00
2023-03-24T10:43:14.112Z,95318.00
2023-03-24T10:46:14.249Z,95316.00
2023-03-24T10:47:15.224Z,95316.00
2023-03-24T10:48:15.453Z,95316.00
2023-03-24T10:51:14.277Z,95312.00
2023-03-24T10:52:15.278Z,95309.00
2023-03-24T10:53:15.448Z,95307.00
2023-03-24T10:54:15.297Z,95307.00
2023-03-24T10:55:15.338Z,95305.00
2023-03-24T10:56:15.402Z,95301.00
2023-03-24T10:57:15.503Z,95299.00
2023-03-24T10:58:15.498Z,95301.00
2023-03-24T10:59:15.545Z,95301.00
2023-03-24T11:00:15.576Z,95299.00
2023-03-24T11:02:15.529Z,95305.00
2023-03-24T11:03:16.030Z,95307.00
2023-03-24T11:04:15.582Z,95307.00
2023-03-24T11:05:15.595Z,95305.00
2023-03-24T11:06:15.547Z,95307.00
2023-03-24T11:07:14.565Z,95309.00
2023-03-24T11:08:15.587Z,95309.00
2023-03-24T11:10:14.612Z,95312.00
2023-03-24T11:13:14.784Z,95312.00
2023-03-24T11:14:15.752Z,95312.00
2023-03-24T11:15:21.301Z,95309.00
2023-03-24T11:17:14.768Z,95314.00
2023-03-24T11:19:17.530Z,95314.00
2023-03-24T11:20:15.741Z,95318.00
2023-03-24T11:21:15.765Z,95322.00
2023-03-24T11:22:15.727Z,95324.00
2023-03-24T11:23:15.744Z,95326.00
2023-03-24T11:24:15.713Z,95330.00
2023-03-24T11:25:15.711Z,95332.00
2023-03-24T11:28:14.709Z,95338.00
2023-03-24T11:30:14.677Z,95342.00
2023-03-24T11:32:14.694Z,95344.00
2023-03-24T11:36:14.694Z,95359.00
2023-03-24T11:37:15.657Z,95363.00
2023-03-24T11:38:14.634Z,95369.00
2023-03-24T11:39:14.643Z,95373.00
2023-03-24T11:40:15.667Z,95381.00
2023-03-24T11:41:15.619Z,95387.00
2023-03-24T11:42:15.637Z,95391.00
2023-03-24T11:46:14.621Z,95397.00
2023-03-24T11:47:15.574Z,95397.00
2023-03-24T11:48:15.587Z,95393.00
2023-03-24T11:49:15.581Z,95387.00
2023-03-24T11:51:14.561Z,95389.00
2023-03-24T11:55:14.524Z,95375.00
2023-03-24T11:57:14.589Z,95371.00
2023-03-24T11:58:15.520Z,95369.00
2023-03-24T11:59:15.500Z,95373.00
2023-03-24T12:01:14.519Z,95371.00
2023-03-24T12:02:15.806Z,95369.00
2023-03-24T12:03:15.788Z,95365.00
2023-03-24T12:04:15.485Z,95365.00
2023-03-24T12:05:15.509Z,95363.00
2023-03-24T12:08:14.445Z,95359.00
2023-03-24T12:09:15.520Z,95359.00
2023-03-24T12:11:15.310Z,95359.00
2023-03-24T12:13:29.613Z,95356.00
2023-03-24T12:14:15.412Z,95352.00
2023-03-24T12:15:27.417Z,95354.00
2023-03-24T12:16:15.458Z,95352.00
2023-03-24T12:17:14.395Z,95348.00
2023-03-24T12:18:15.381Z,95346.00
2023-03-24T12:19:15.386Z,95346.00
2023-03-24T12:23:14.358Z,95336.00
2023-03-24T12:24:15.370Z,95336.00
2023-03-24T12:25:15.366Z,95334.00
2023-03-24T12:26:15.331Z,95332.00
2023-03-24T12:27:15.642Z,95326.00
2023-03-24T12:31:14.343Z,95316.00
2023-03-24T12:32:15.294Z,95318.00
2023-03-24T12:34:14.279Z,95316.00
2023-03-24T12:38:14.255Z,95301.00
2023-03-24T12:40:14.303Z,95303.00
2023-03-24T12:41:15.307Z,95297.00
2023-03-24T12:44:14.225Z,95295.00
2023-03-24T12:46:14.219Z,95293.00
2023-03-24T12:50:14.182Z,95283.00
2023-03-24T12:52:14.182Z,95283.00
2023-03-24T12:55:14.131Z,95279.00
2023-03-24T12:56:14.128Z,95277.00
2023-03-24T12:57:14.209Z,95273.00
2023-03-24T12:58:15.124Z,95267.00
2023-03-24T13:00:14.176Z,95269.00
2023-03-24T13:01:15.126Z,95271.00
2023-03-24T13:06:17.210Z,95267.00
2023-03-24T13:07:15.072Z,95269.00
2023-03-24T13:08:14.072Z,95265.00
2023-03-24T13:09:15.048Z,95267.00
2023-03-24T13:10:15.048Z,95265.00
2023-03-24T13:11:26.749Z,95264.00
2023-03-24T13:14:14.043Z,95260.00
2023-03-24T13:15:14.035Z,95258.00
2023-03-24T13:16:15.046Z,95256.00
2023-03-24T13:17:15.005Z,95256.00
2023-03-24T13:18:15.071Z,95250.00
2023-03-24T13:21:14.009Z,95226.00
2023-03-24T13:22:14.973Z,95218.00
2023-03-24T13:26:13.947Z,95218.00
2023-03-24T13:28:13.939Z,95228.00
2023-03-24T13:29:15.019Z,95230.00
2023-03-24T13:32:13.914Z,95222.00
2023-03-24T13:33:13.988Z,95218.00
2023-03-24T13:35:13.938Z,95215.00
2023-03-24T13:37:13.877Z,95217.00
2023-03-24T13:38:13.869Z,95217.00
2023-03-24T13:39:14.878Z,95217.00
2023-03-24T13:43:13.851Z,95209.00
2023-03-24T13:44:14.837Z,95207.00
2023-03-24T13:45:14.857Z,95205.00
2023-03-24T13:46:14.876Z,95201.00
2023-03-24T13:48:13.851Z,95201.00
2023-03-24T13:49:14.816Z,95201.00
2023-03-24T13:51:13.790Z,95205.00
2023-03-24T13:52:13.776Z,95203.00
2023-03-24T13:53:14.767Z,95203.00
2023-03-24T13:54:14.782Z,95205.00
2023-03-24T13:56:13.738Z,95205.00
2023-03-24T13:57:13.749Z,95205.00
2023-03-24T13:58:14.742Z,95205.00
2023-03-24T13:59:14.749Z,95201.00
2023-03-24T14:00:14.726Z,95197.00
2023-03-24T14:01:14.779Z,95193.00
2023-03-24T14:07:13.673Z,95187.00
2023-03-24T14:08:14.672Z,95185.00
2023-03-24T14:09:14.672Z,95181.00
2023-03-24T14:11:13.657Z,95181.00
2023-03-24T14:12:13.646Z,95181.00
2023-03-24T14:13:14.657Z,95181.00
2023-03-24T14:14:14.633Z,95181.00
2023-03-24T14:15:14.646Z,95179.00
2023-03-24T14:17:13.634Z,95175.00
2023-03-24T14:18:13.606Z,95177.00
2023-03-24T14:19:14.598Z,95173.00
2023-03-24T14:24:13.549Z,95175.00
2023-03-24T14:25:13.552Z,95175.00
2023-03-24T14:26:14.543Z,95173.00
2023-03-24T14:29:13.526Z,95171.00
2023-03-24T14:32:20.079Z,95170.00
2023-03-24T14:33:14.518Z,95168.00
2023-03-24T14:34:14.487Z,95168.00
2023-03-24T14:35:14.512Z,95168.00
2023-03-24T14:38:13.476Z,95171.00
2023-03-24T14:39:14.476Z,95171.00
2023-03-24T14:41:13.462Z,95171.00
2023-03-24T14:42:14.451Z,95168.00
2023-03-24T14:44:13.444Z,95166.00
2023-03-24T14:45:14.502Z,95164.00
2023-03-24T14:49:13.424Z,95138.00
2023-03-24T14:50:14.412Z,95128.00
2023-03-24T14:51:14.392Z,95128.00
2023-03-24T14:55:13.368Z,95126.00
2023-03-24T14:56:14.360Z,95124.00
2023-03-24T14:58:13.335Z,95122.00
2023-03-24T14:59:14.344Z,95122.00
2023-03-24T15:00:13.355Z,95120.00
2023-03-24T15:01:13.751Z,95117.00
2023-03-24T15:04:13.314Z,95113.00
2023-03-24T15:05:14.326Z,95111.00
2023-03-24T15:06:14.279Z,95111.00
2023-03-24T15:07:14.297Z,95105.00
2023-03-24T15:08:14.338Z,95103.00
2023-03-24T15:09:14.309Z,95103.00
2023-03-24T15:10:14.335Z,95097.00
2023-03-24T15:14:13.404Z,95087.00
2023-03-24T15:15:14.420Z,95085.00
2023-03-24T15:16:14.462Z,95083.00
2023-03-24T15:17:14.457Z,95077.00
2023-03-24T15:18:14.525Z,95075.00
2023-03-24T15:19:14.496Z,95075.00
2023-03-24T15:20:14.521Z,95079.00
2023-03-24T15:21:14.560Z,95081.00
2023-03-24T15:23:13.581Z,95085.00
2023-03-24T15:24:14.692Z,95085.00
2023-03-24T15:25:14.664Z,95087.00
2023-03-24T15:26:14.666Z,95083.00
2023-03-24T15:29:13.789Z,95083.00
2023-03-24T15:30:14.832Z,95085.00
2023-03-24T15:31:14.913Z,95087.00
2023-03-24T15:32:14.935Z,95085.00
2023-03-24T15:33:14.978Z,95089.00
2023-03-24T15:34:15.133Z,95085.00
2023-03-24T15:37:14.245Z,95087.00
2023-03-24T15:38:15.262Z,95083.00
2023-03-24T15:39:15.305Z,95081.00
2023-03-24T15:40:16.112Z,95081.00
2023-03-24T15:41:15.400Z,95081.00
2023-03-24T15:42:15.445Z,95081.00
2023-03-24T15:45:14.598Z,95081.00
2023-03-24T15:46:15.700Z,95079.00
2023-03-24T15:48:14.714Z,95083.00
2023-03-24T15:49:15.759Z,95083.00
2023-03-24T15:50:15.821Z,95087.00
2023-03-24T15:51:15.831Z,95089.00
2023-03-24T15:52:15.850Z,95089.00
2023-03-24T15:53:15.932Z,95091.00
2023-03-24T15:54:15.921Z,95087.00
2023-03-24T15:55:14.948Z,95091.00
2023-03-24T15:56:15.981Z,95093.00
2023-03-24T15:57:15.998Z,95089.00
2023-03-24T15:58:16.036Z,95093.00
2023-03-24T15:59:16.117Z,95097.00
2023-03-24T16:00:16.101Z,95101.00
2023-03-24T16:01:16.144Z,95099.00
2023-03-24T16:02:16.141Z,95103.00
2023-03-24T16:03:16.220Z,95107.00
2023-03-24T16:04:16.186Z,95109.00
2023-03-24T16:05:16.238Z,95111.00
2023-03-24T16:06:16.240Z,95109.00
2023-03-24T16:07:16.268Z,95111.00
2023-03-24T16:10:15.349Z,95111.00
2023-03-24T16:11:16.389Z,95122.00
2023-03-24T16:12:16.407Z,95117.00
2023-03-24T16:13:16.443Z,95118.00
2023-03-24T16:14:16.465Z,95117.00
2023-03-24T16:15:15.502Z,95117.00
2023-03-24T16:16:15.773Z,95120.00
2023-03-24T16:17:15.565Z,95120.00
2023-03-24T16:18:16.603Z,95117.00
2023-03-24T16:19:16.648Z,95124.00
2023-03-24T16:22:15.738Z,95136.00
2023-03-24T16:23:16.760Z,95138.00
2023-03-24T16:24:16.787Z,95148.00
2023-03-24T16:25:16.861Z,95162.00
2023-03-24T16:26:16.867Z,95171.00
2023-03-24T16:27:15.894Z,95175.00
2023-03-24T16:28:15.934Z,95187.00
2023-03-24T16:29:16.954Z,95189.00
